Time;durP1;ratioP1;P1;durP2;ratioP2;P2;SDS_P1;SDS_P2;PMS_P1;PMS_P2;Temp;Humidity;BMP_temperature;BMP_pressure;BME280_temperature;BME280_humidity;BME280_pressure;Samples;Min_cycle;Max_cycle;Signal;HPM_P1;HPM_P2
2022/12/29 00:02:01;;;;;;;7.93;1.83;;;19.20;1.00;;;;;;5093068;28;20511;-32
2022/12/29 00:04:28;;;;;;;7.47;1.95;;;19.20;1.00;;;;;;5074867;28;20082;-32
2022/12/29 00:06:54;;;;;;;6.05;1.77;;;19.20;1.00;;;;;;5092840;28;20454;-32
2022/12/29 00:09:21;;;;;;;3.85;1.30;;;19.10;1.00;;;;;;5076250;28;20364;-32
2022/12/29 00:11:49;;;;;;;6.20;1.52;;;19.10;1.00;;;;;;5072421;28;20086;-32
2022/12/29 00:17:15;;;;;;;7.15;2.33;;;19.00;1.00;;;;;;5027994;28;20052;-32
2022/12/29 00:36:33;;;;;;;3.08;1.13;;;18.70;1.00;;;;;;5074314;28;20047;-32
2022/12/29 00:44:49;;;;;;;5.43;1.27;;;18.60;1.00;;;;;;5074061;28;20044;-32
2022/12/29 00:47:16;;;;;;;5.32;1.83;;;18.50;1.00;;;;;;5074092;28;20097;-32
2022/12/29 00:49:44;;;;;;;7.65;1.58;;;18.50;1.00;;;;;;5092196;28;20036;-32
2022/12/29 00:52:13;;;;;;;6.15;2.03;;;18.50;1.00;;;;;;5073989;28;20499;-32
2022/12/29 00:54:40;;;;;;;5.00;1.20;;;18.50;1.00;;;;;;5073876;28;20040;-32
2022/12/29 00:57:09;;;;;;;5.18;1.85;;;18.40;1.00;;;;;;5073884;28;20071;-32
2022/12/29 00:59:37;;;;;;;4.22;1.60;;;18.40;1.00;;;;;;5092272;28;20453;-32
2022/12/29 01:02:04;;;;;;;5.07;1.52;;;18.30;1.00;;;;;;5073936;28;20044;-32
2022/12/29 01:04:31;;;;;;;4.05;1.67;;;18.40;1.00;;;;;;5091915;28;20404;-32
2022/12/29 01:06:58;;;;;;;5.53;1.50;;;18.30;1.00;;;;;;5092057;28;20437;-32
2022/12/29 01:12:12;;;;;;;5.00;1.17;;;18.30;1.00;;;;;;5091918;28;20522;-32
2022/12/29 01:14:40;;;;;;;5.03;1.40;;;18.20;1.00;;;;;;5091794;28;20047;-32
2022/12/29 01:17:07;;;;;;;6.25;1.80;;;18.20;1.00;;;;;;5073833;28;20560;-32
2022/12/29 01:19:34;;;;;;;7.45;1.77;;;18.20;1.00;;;;;;5091962;28;20059;-32
2022/12/29 01:22:00;;;;;;;6.78;1.40;;;18.20;1.00;;;;;;5073642;28;20051;-32
2022/12/29 01:24:27;;;;;;;10.45;2.40;;;18.20;1.00;;;;;;5073402;28;20043;-32
2022/12/29 01:26:54;;;;;;;6.13;1.50;;;18.10;1.00;;;;;;5091824;28;20048;-32
2022/12/29 01:29:21;;;;;;;5.63;1.17;;;18.10;1.00;;;;;;5091800;28;20048;-32
2022/12/29 01:31:49;;;;;;;6.55;1.73;;;18.10;1.00;;;;;;5091784;28;20384;-32
2022/12/29 01:34:17;;;;;;;6.35;1.75;;;18.00;1.00;;;;;;5091580;28;20066;-31
2022/12/29 01:36:44;;;;;;;5.70;1.48;;;18.00;1.00;;;;;;5092330;28;20032;-31
2022/12/29 01:39:12;;;;;;;6.63;1.30;;;18.00;1.00;;;;;;5077761;28;20056;-32
2022/12/29 01:41:40;;;;;;;4.05;1.15;;;18.00;1.00;;;;;;5095819;28;20059;-31
2022/12/29 01:44:47;;;;;;;7.57;1.60;;;17.90;1.00;;;;;;5095613;28;20044;-32
2022/12/29 01:47:23;;;;;;;9.10;1.17;;;17.90;1.00;;;;;;5095737;28;20044;-32
2022/12/29 01:49:54;;;;;;;4.25;1.42;;;17.90;1.00;;;;;;5095720;28;20040;-31
2022/12/29 01:52:24;;;;;;;9.75;1.90;;;17.90;1.00;;;;;;5095504;28;20043;-32
2022/12/29 01:54:55;;;;;;;3.45;1.13;;;17.90;1.00;;;;;;5077142;28;20040;-32
2022/12/29 01:57:29;;;;;;;5.28;1.30;;;17.80;1.00;;;;;;5077404;28;20052;-32
2022/12/29 02:00:11;;;;;;;5.75;1.52;;;17.80;1.00;;;;;;5077390;28;20055;-32
2022/12/29 02:02:51;;;;;;;6.15;1.20;;;17.80;1.00;;;;;;5095274;28;20072;-32
2022/12/29 02:05:41;;;;;;;4.88;1.30;;;17.80;1.00;;;;;;5095330;28;20105;-32
2022/12/29 02:08:12;;;;;;;4.22;0.93;;;17.70;1.00;;;;;;5077974;28;20064;-32
2022/12/29 02:10:41;;;;;;;5.03;1.40;;;17.70;1.00;;;;;;5077029;28;20088;-32
2022/12/29 02:13:09;;;;;;;5.53;1.30;;;17.70;1.00;;;;;;5095063;28;20032;-32
2022/12/29 02:16:08;;;;;;;7.85;1.67;;;17.70;1.00;;;;;;5076920;28;20044;-32
2022/12/29 02:18:58;;;;;;;5.32;1.67;;;17.70;1.00;;;;;;5036799;28;20048;-32
2022/12/29 02:21:43;;;;;;;6.07;2.25;;;17.60;1.00;;;;;;5076999;28;20487;-32
2022/12/29 02:24:29;;;;;;;6.25;1.50;;;17.60;1.00;;;;;;5094826;28;20447;-32
2022/12/29 02:27:17;;;;;;;6.53;1.67;;;17.60;1.00;;;;;;5076754;28;20134;-32
2022/12/29 02:30:06;;;;;;;3.78;0.88;;;17.60;1.00;;;;;;5094942;28;20036;-32
2022/12/29 02:32:51;;;;;;;4.53;0.98;;;17.60;1.00;;;;;;5076623;28;20098;-32
2022/12/29 02:35:43;;;;;;;6.00;1.83;;;17.50;1.00;;;;;;5076583;28;20044;-31
2022/12/29 02:38:25;;;;;;;6.63;1.73;;;17.50;1.00;;;;;;5076605;28;20047;-32
2022/12/29 02:40:59;;;;;;;4.38;0.95;;;17.50;1.00;;;;;;5094826;28;20048;-32
2022/12/29 02:43:38;;;;;;;4.63;1.40;;;17.50;1.00;;;;;;5076153;28;20164;-32
2022/12/29 02:46:08;;;;;;;6.22;0.98;;;17.50;1.00;;;;;;5076380;28;20047;-32
2022/12/29 02:48:44;;;;;;;8.55;1.50;;;17.40;1.00;;;;;;5076229;28;20503;-32
2022/12/29 02:51:23;;;;;;;4.93;1.83;;;17.40;1.00;;;;;;5094614;28;20416;-32
2022/12/29 02:56:37;;;;;;;5.85;2.03;;;17.40;1.00;;;;;;5076266;28;20130;-32
2022/12/29 02:59:05;;;;;;;3.53;1.17;;;17.40;1.00;;;;;;5076214;28;20040;-32
2022/12/29 03:01:31;;;;;;;7.45;2.17;;;17.40;1.00;;;;;;5094340;28;20043;-32
2022/12/29 03:04:36;;;;;;;6.80;1.63;;;17.30;1.00;;;;;;5075821;28;20044;-32
2022/12/29 03:07:34;;;;;;;4.28;1.75;;;17.30;1.00;;;;;;5094252;28;20051;-32
2022/12/29 03:10:26;;;;;;;4.20;1.77;;;17.30;1.00;;;;;;5075981;28;20546;-32
2022/12/29 03:16:03;;;;;;;8.20;1.30;;;17.30;1.00;;;;;;5075886;28;20055;-31
2022/12/29 03:18:51;;;;;;;8.18;2.05;;;17.20;1.00;;;;;;5075963;28;20054;-32
2022/12/29 03:24:26;;;;;;;8.10;2.85;;;17.20;1.00;;;;;;5075412;28;20055;-32
2022/12/29 03:26:58;;;;;;;9.27;1.85;;;17.20;1.00;;;;;;5093906;28;20039;-31
2022/12/29 03:29:32;;;;;;;5.95;1.80;;;17.20;1.00;;;;;;5075675;28;20040;-32
2022/12/29 03:32:03;;;;;;;7.28;1.70;;;17.20;1.00;;;;;;5075554;28;20048;-32
2022/12/29 03:34:30;;;;;;;5.68;2.03;;;17.10;1.00;;;;;;5075222;28;20385;-32
2022/12/29 03:37:02;;;;;;;6.95;1.60;;;17.10;1.00;;;;;;5075516;28;20176;-32
2022/12/29 03:39:29;;;;;;;10.20;1.50;;;17.10;1.00;;;;;;5075435;28;20139;-32
2022/12/29 03:42:04;;;;;;;7.05;2.03;;;17.10;1.00;;;;;;5093545;28;20131;-32
2022/12/29 03:44:33;;;;;;;7.47;1.08;;;17.10;1.00;;;;;;5075080;28;20087;-32
2022/12/29 03:47:00;;;;;;;15.45;2.38;;;17.10;1.00;;;;;;5075282;28;20075;-32
2022/12/29 03:49:27;;;;;;;6.68;1.95;;;17.10;1.00;;;;;;5075100;28;20040;-32
2022/12/29 03:51:54;;;;;;;7.05;1.65;;;17.10;1.00;;;;;;5093329;28;20070;-31
2022/12/29 03:54:22;;;;;;;10.82;2.22;;;17.10;1.00;;;;;;5092884;28;20059;-32
2022/12/29 03:56:49;;;;;;;8.68;2.35;;;17.00;1.00;;;;;;5074978;28;20131;-31
2022/12/29 03:59:22;;;;;;;8.18;2.55;;;17.00;1.00;;;;;;5074445;28;20055;-31
2022/12/29 04:01:49;;;;;;;7.70;2.25;;;17.00;1.00;;;;;;5074922;28;20445;-32
2022/12/29 04:04:16;;;;;;;6.97;1.85;;;17.00;1.00;;;;;;5092859;28;20093;-32
2022/12/29 04:06:43;;;;;;;11.25;1.98;;;17.00;1.00;;;;;;5074455;28;20070;-32
2022/12/29 04:09:10;;;;;;;6.68;2.17;;;16.90;1.00;;;;;;5074791;28;20044;-32
2022/12/29 04:11:43;;;;;;;6.00;1.83;;;16.90;1.00;;;;;;5074803;28;20097;-32
2022/12/29 04:14:10;;;;;;;9.40;2.85;;;16.90;1.00;;;;;;5074543;28;20040;-32
2022/12/29 04:16:38;;;;;;;12.48;1.65;;;16.90;1.00;;;;;;5074590;28;20040;-32
2022/12/29 04:19:07;;;;;;;9.30;1.65;;;16.90;1.00;;;;;;5074638;28;20040;-34
2022/12/29 04:21:35;;;;;;;4.18;1.60;;;16.90;1.00;;;;;;5074546;28;20047;-32
2022/12/29 04:24:06;;;;;;;12.90;2.05;;;16.90;1.00;;;;;;5074406;28;20048;-32
2022/12/29 04:26:35;;;;;;;8.23;1.95;;;16.90;1.00;;;;;;5092673;28;20050;-32
2022/12/29 04:29:21;;;;;;;5.85;1.48;;;16.90;1.00;;;;;;5074399;28;20044;-32
2022/12/29 04:32:14;;;;;;;10.13;1.92;;;16.80;1.00;;;;;;5073990;28;20059;-32
2022/12/29 04:34:46;;;;;;;8.50;2.58;;;16.80;1.00;;;;;;5092427;28;20055;-31
2022/12/29 04:37:13;;;;;;;7.85;2.03;;;16.80;1.00;;;;;;5092636;28;20036;-31
2022/12/29 04:39:41;;;;;;;8.80;2.08;;;16.80;1.00;;;;;;5074309;28;20057;-31
2022/12/29 04:42:08;;;;;;;9.85;2.80;;;16.80;1.00;;;;;;5074084;28;20127;-31
2022/12/29 04:44:35;;;;;;;9.38;2.58;;;16.80;1.00;;;;;;5074042;28;20094;-32
2022/12/29 04:47:14;;;;;;;14.25;2.22;;;16.80;1.00;;;;;;5074148;28;20052;-31
2022/12/29 04:49:51;;;;;;;7.32;1.83;;;16.80;1.00;;;;;;5074281;28;20419;-31
2022/12/29 04:52:39;;;;;;;9.40;2.38;;;16.70;1.00;;;;;;5073810;28;20423;-31
2022/12/29 04:55:09;;;;;;;6.82;2.67;;;16.70;1.00;;;;;;5073998;28;20044;-32
2022/12/29 04:57:36;;;;;;;8.57;2.15;;;16.70;1.00;;;;;;5074083;28;20043;-32
2022/12/29 05:00:06;;;;;;;8.45;2.63;;;16.70;1.00;;;;;;5074073;28;20068;-31
2022/12/29 05:02:36;;;;;;;8.43;2.13;;;16.70;1.00;;;;;;5073864;28;20044;-31
2022/12/29 05:05:04;;;;;;;9.20;2.20;;;16.70;1.00;;;;;;5073705;28;20052;-37
2022/12/29 05:07:33;;;;;;;9.85;1.65;;;16.70;1.00;;;;;;5073911;28;20048;-35
2022/12/29 05:10:00;;;;;;;14.43;2.90;;;16.70;1.00;;;;;;5072649;28;20169;-37
2022/12/29 05:12:33;;;;;;;11.10;1.98;;;16.60;1.00;;;;;;5050302;28;20033;-35
2022/12/29 05:15:02;;;;;;;10.40;2.78;;;16.60;1.00;;;;;;5054611;28;20040;-37
2022/12/29 05:17:30;;;;;;;6.65;2.30;;;16.60;1.00;;;;;;5054062;28;20040;-35
2022/12/29 05:19:57;;;;;;;12.85;3.28;;;16.60;1.00;;;;;;5051935;28;20075;-38
2022/12/29 05:22:24;;;;;;;8.90;2.22;;;16.60;1.00;;;;;;5053614;28;20106;-35
2022/12/29 05:24:53;;;;;;;9.77;2.85;;;16.60;1.00;;;;;;5053520;28;20045;-36
2022/12/29 05:27:21;;;;;;;11.60;2.60;;;16.50;1.00;;;;;;5053795;28;20059;-35
2022/12/29 05:29:58;;;;;;;10.45;1.60;;;16.60;1.00;;;;;;5053548;28;20036;-37
2022/12/29 05:32:25;;;;;;;9.30;2.83;;;16.50;1.00;;;;;;5053425;28;20049;-35
2022/12/29 05:34:53;;;;;;;12.57;2.70;;;16.50;1.00;;;;;;5053470;28;20251;-38
2022/12/29 05:37:21;;;;;;;23.35;2.80;;;16.50;1.00;;;;;;5071650;28;20033;-38
2022/12/29 05:39:48;;;;;;;8.05;2.45;;;16.50;1.00;;;;;;5053661;28;20068;-37
2022/12/29 05:42:15;;;;;;;10.00;2.83;;;16.50;1.00;;;;;;5053357;28;20135;-33
2022/12/29 05:44:53;;;;;;;5.78;2.00;;;16.50;1.00;;;;;;5071401;28;20820;-34
2022/12/29 05:47:24;;;;;;;;;;;16.50;1.00;;;;;;5053986;28;20152;-35
2022/12/29 05:50:04;;;;;;;12.52;2.42;;;16.50;1.00;;;;;;5053375;28;20372;-38
2022/12/29 05:52:50;;;;;;;8.85;2.10;;;16.50;1.00;;;;;;5071488;28;20149;-36
2022/12/29 05:55:18;;;;;;;15.48;3.30;;;16.40;1.00;;;;;;5054047;28;20056;-39
2022/12/29 05:57:47;;;;;;;10.60;1.98;;;16.40;1.00;;;;;;5065383;28;20036;-35
2022/12/29 06:00:15;;;;;;;16.80;3.58;;;16.40;1.00;;;;;;5048119;28;20058;-37
2022/12/29 06:02:45;;;;;;;13.57;2.80;;;16.40;1.00;;;;;;5073154;28;20052;-35
2022/12/29 06:05:14;;;;;;;11.75;2.33;;;16.40;1.00;;;;;;5072998;28;20518;-34
2022/12/29 06:07:41;;;;;;;11.70;4.15;;;16.40;1.00;;;;;;5091444;28;20052;-36
2022/12/29 06:10:10;;;;;;;11.25;4.15;;;16.40;1.00;;;;;;5073324;28;20040;-38
2022/12/29 06:12:44;;;;;;;13.25;3.00;;;16.40;1.00;;;;;;5072993;28;20040;-36
2022/12/29 06:15:11;;;;;;;15.32;3.05;;;16.40;1.00;;;;;;5073198;28;20044;-37
2022/12/29 06:17:40;;;;;;;13.48;3.40;;;16.40;1.00;;;;;;5073644;28;20051;-38
2022/12/29 06:20:09;;;;;;;12.80;2.35;;;16.40;1.00;;;;;;5073352;28;20051;-34
2022/12/29 06:22:36;;;;;;;12.13;3.00;;;16.40;1.00;;;;;;5073457;28;20040;-39
2022/12/29 06:25:05;;;;;;;14.80;3.30;;;16.40;1.00;;;;;;5076778;28;20502;-37
2022/12/29 06:27:33;;;;;;;15.85;2.97;;;16.30;1.00;;;;;;5076859;28;20082;-35
2022/12/29 06:30:00;;;;;;;14.02;3.15;;;16.40;1.00;;;;;;5060223;28;20491;-38
2022/12/29 06:32:28;;;;;;;9.00;3.15;;;16.30;1.00;;;;;;5060026;28;20549;-35
2022/12/29 06:34:59;;;;;;;10.05;2.45;;;16.30;1.00;;;;;;5076512;28;20127;-35
2022/12/29 06:37:26;;;;;;;16.00;2.90;;;16.30;1.00;;;;;;5076673;28;20095;-40
2022/12/29 06:39:53;;;;;;;10.07;2.85;;;16.30;1.00;;;;;;5076667;28;20097;-36
2022/12/29 06:42:21;;;;;;;15.38;2.65;;;16.30;1.00;;;;;;5076349;28;20044;-37
2022/12/29 06:44:58;;;;;;;9.80;2.70;;;16.30;1.00;;;;;;5076226;28;20055;-36
2022/12/29 06:47:25;;;;;;;13.40;3.13;;;16.30;1.00;;;;;;5094724;28;20432;-35
2022/12/29 06:49:52;;;;;;;10.32;2.95;;;16.30;1.00;;;;;;5094602;28;20040;-39
2022/12/29 06:52:19;;;;;;;15.45;2.75;;;16.20;1.00;;;;;;5094415;28;20062;-35
2022/12/29 06:54:45;;;;;;;16.02;3.70;;;16.20;1.00;;;;;;5094374;28;20117;-37
2022/12/29 06:57:12;;;;;;;11.48;2.80;;;16.20;1.00;;;;;;5094520;28;20093;-39
2022/12/29 06:59:39;;;;;;;11.95;2.95;;;16.20;1.00;;;;;;5094362;28;20044;-36
2022/12/29 07:02:06;;;;;;;14.95;3.25;;;16.20;1.00;;;;;;5076404;28;20048;-34
2022/12/29 07:04:33;;;;;;;14.95;3.40;;;16.20;1.00;;;;;;5094058;28;20066;-34
2022/12/29 07:07:00;;;;;;;12.63;2.90;;;16.20;1.00;;;;;;5094221;28;20048;-37
2022/12/29 07:09:27;;;;;;;12.73;3.90;;;16.20;1.00;;;;;;5094388;28;20067;-34
2022/12/29 07:11:53;;;;;;;11.18;3.60;;;16.20;1.00;;;;;;5094073;28;20385;-36
2022/12/29 07:14:20;;;;;;;13.57;2.70;;;16.20;1.00;;;;;;5094139;28;20044;-36
2022/12/29 07:16:47;;;;;;;15.13;2.92;;;16.20;1.00;;;;;;5094204;28;20504;-34
2022/12/29 07:19:14;;;;;;;15.75;4.03;;;16.20;1.00;;;;;;5094147;28;20040;-36
2022/12/29 07:21:41;;;;;;;11.60;3.00;;;16.10;1.00;;;;;;5094147;28;20127;-34
2022/12/29 07:24:11;;;;;;;11.40;2.40;;;16.10;1.00;;;;;;5093676;28;20072;-38
2022/12/29 07:26:38;;;;;;;14.57;4.72;;;16.10;1.00;;;;;;5075565;28;20446;-40
2022/12/29 07:29:04;;;;;;;14.93;2.88;;;16.10;1.00;;;;;;5094145;28;20516;-36
2022/12/29 07:31:32;;;;;;;8.82;2.58;;;16.10;1.00;;;;;;5093795;28;20036;-37
2022/12/29 07:33:58;;;;;;;12.77;3.25;;;16.10;1.00;;;;;;5074794;28;20046;-36
2022/12/29 07:36:25;;;;;;;14.25;2.45;;;16.10;1.00;;;;;;5075288;28;20043;-37
2022/12/29 07:38:59;;;;;;;13.50;3.22;;;16.10;1.00;;;;;;5076836;28;20119;-35
2022/12/29 07:41:26;;;;;;;13.63;3.42;;;16.10;1.00;;;;;;5093617;28;20048;-37
2022/12/29 07:43:53;;;;;;;6.72;2.58;;;16.10;1.00;;;;;;5075184;28;20055;-40
2022/12/29 07:46:31;;;;;;;16.27;3.08;;;16.10;1.00;;;;;;5075219;28;20048;-38
2022/12/29 07:49:17;;;;;;;10.95;2.88;;;16.00;1.00;;;;;;5093567;28;20101;-36
2022/12/29 07:51:44;;;;;;;12.15;3.00;;;16.00;1.00;;;;;;5093112;28;20044;-38
2022/12/29 07:54:12;;;;;;;9.93;3.08;;;16.00;1.00;;;;;;5093125;28;20037;-38
2022/12/29 07:56:39;;;;;;;12.82;3.10;;;16.00;1.00;;;;;;5075220;28;20046;-37
2022/12/29 07:59:06;;;;;;;8.98;3.17;;;16.00;1.00;;;;;;5093203;28;20490;-36
2022/12/29 08:01:32;;;;;;;8.15;2.28;;;16.00;1.00;;;;;;5075134;28;20044;-37
2022/12/29 08:03:59;;;;;;;15.63;4.97;;;16.00;1.00;;;;;;5092776;28;20044;-44
2022/12/29 08:06:26;;;;;;;9.70;3.40;;;16.00;1.00;;;;;;5092812;28;20043;-37
2022/12/29 08:08:53;;;;;;;13.23;4.43;;;16.00;1.00;;;;;;5074222;28;20088;-38
2022/12/29 08:11:20;;;;;;;10.15;3.38;;;16.00;1.00;;;;;;5088406;28;20048;-37
2022/12/29 08:13:47;;;;;;;18.58;4.60;;;16.00;1.00;;;;;;5086853;28;20047;-39
2022/12/29 08:16:14;;;;;;;14.60;2.90;;;16.00;1.00;;;;;;5092675;28;20135;-38
2022/12/29 08:18:41;;;;;;;9.05;2.95;;;15.90;1.00;;;;;;5092556;28;20066;-38
2022/12/29 08:21:07;;;;;;;9.02;2.40;;;15.90;1.00;;;;;;5092752;28;20036;-35
2022/12/29 08:23:34;;;;;;;10.75;2.70;;;16.00;1.00;;;;;;5092598;28;20457;-37
2022/12/29 08:26:03;;;;;;;12.13;3.67;;;15.90;1.00;;;;;;5090658;28;20048;-41
2022/12/29 08:28:31;;;;;;;10.90;2.30;;;15.90;1.00;;;;;;5087305;28;20044;-35
2022/12/29 08:30:59;;;;;;;12.80;3.17;;;15.90;1.00;;;;;;5091937;28;20487;-38
2022/12/29 08:33:27;;;;;;;9.93;2.80;;;15.90;1.00;;;;;;5092677;28;20493;-36
2022/12/29 08:36:02;;;;;;;12.23;2.00;;;15.90;1.00;;;;;;5092361;28;20481;-34
2022/12/29 08:38:29;;;;;;;13.35;3.40;;;15.90;1.00;;;;;;5090485;28;20036;-37
2022/12/29 08:40:57;;;;;;;16.08;4.18;;;15.90;1.00;;;;;;5092411;28;20051;-40
2022/12/29 08:43:24;;;;;;;17.23;3.38;;;15.90;1.00;;;;;;5088664;28;20044;-39
2022/12/29 08:45:52;;;;;;;19.75;2.50;;;15.90;1.00;;;;;;5091708;28;20040;-38
2022/12/29 08:48:21;;;;;;;12.52;3.22;;;15.80;1.00;;;;;;5072973;28;20093;-39
2022/12/29 08:50:49;;;;;;;10.80;2.72;;;15.80;1.00;;;;;;5088155;28;20415;-40
2022/12/29 08:53:17;;;;;;;10.95;3.50;;;15.90;1.00;;;;;;5072672;28;20044;-38
2022/12/29 08:55:46;;;;;;;12.00;3.15;;;15.80;1.00;;;;;;5092424;28;20044;-36
2022/12/29 08:58:14;;;;;;;11.63;2.55;;;15.80;1.00;;;;;;5074192;28;20399;-39
2022/12/29 09:00:42;;;;;;;16.35;3.17;;;15.80;1.00;;;;;;5057589;28;20042;-39
2022/12/29 09:03:09;;;;;;;16.48;4.18;;;15.80;1.00;;;;;;5073867;28;20089;-37
2022/12/29 09:05:37;;;;;;;9.18;3.33;;;15.80;1.00;;;;;;5091862;28;20407;-41
2022/12/29 09:08:04;;;;;;;12.75;3.88;;;15.80;1.00;;;;;;5092030;28;20047;-38
2022/12/29 09:10:31;;;;;;;22.27;3.78;;;15.80;1.00;;;;;;5091919;28;20040;-37
2022/12/29 09:12:58;;;;;;;13.45;3.00;;;15.80;1.00;;;;;;5073258;28;20044;-38
2022/12/29 09:15:25;;;;;;;12.45;2.88;;;15.80;1.00;;;;;;5091725;28;20074;-36
2022/12/29 09:17:55;;;;;;;15.23;2.83;;;15.80;1.00;;;;;;5091997;28;20496;-36
2022/12/29 09:20:21;;;;;;;13.35;3.17;;;15.80;1.00;;;;;;5092228;28;20036;-38
2022/12/29 09:22:49;;;;;;;9.10;2.70;;;15.80;1.00;;;;;;5091441;28;20048;-39
2022/12/29 09:25:16;;;;;;;10.77;2.72;;;15.80;1.00;;;;;;5091718;28;20089;-39
2022/12/29 09:27:43;;;;;;;15.70;3.67;;;15.80;1.00;;;;;;5073823;28;20040;-39
2022/12/29 09:30:12;;;;;;;10.23;2.88;;;15.70;1.00;;;;;;5091650;28;20044;-38
2022/12/29 09:32:39;;;;;;;15.18;2.95;;;15.70;1.00;;;;;;5091343;28;20041;-37
2022/12/29 09:35:11;;;;;;;12.20;3.20;;;15.70;1.00;;;;;;5091721;28;20048;-37
2022/12/29 09:37:38;;;;;;;10.57;2.78;;;15.70;1.00;;;;;;5091702;28;20411;-36
2022/12/29 09:40:06;;;;;;;8.88;3.17;;;15.70;1.00;;;;;;5091452;28;20048;-33
2022/12/29 09:43:02;;;;;;;14.02;2.80;;;15.70;1.00;;;;;;5073790;28;20134;-36
2022/12/29 09:45:34;;;;;;;10.02;2.72;;;15.70;1.00;;;;;;5091501;28;20055;-34
2022/12/29 09:48:03;;;;;;;12.93;2.97;;;15.70;1.00;;;;;;5091665;28;20097;-38
2022/12/29 09:50:37;;;;;;;12.07;3.30;;;15.70;1.00;;;;;;5073444;28;20048;-39
2022/12/29 09:53:31;;;;;;;14.40;3.42;;;15.70;1.00;;;;;;5091182;28;20518;-36
2022/12/29 09:56:00;;;;;;;9.80;2.88;;;15.70;1.00;;;;;;5091509;28;20392;-33
2022/12/29 09:58:34;;;;;;;14.57;2.78;;;15.70;1.00;;;;;;5093270;28;20068;-37
2022/12/29 10:01:04;;;;;;;9.32;2.63;;;15.70;1.00;;;;;;5095416;28;20499;-36
2022/12/29 10:03:49;;;;;;;11.10;3.45;;;15.70;1.00;;;;;;5077201;28;20048;-39
2022/12/29 10:06:23;;;;;;;12.68;3.55;;;15.70;1.00;;;;;;5095210;28;20044;-33
2022/12/29 10:09:16;;;;;;;12.50;2.90;;;15.70;1.00;;;;;;5095440;28;20388;-36
2022/12/29 10:12:21;;;;;;;9.30;2.13;;;15.70;1.00;;;;;;5095252;28;20043;-34
2022/12/29 10:14:50;;;;;;;10.45;2.50;;;15.60;1.00;;;;;;5095021;28;20044;-38
2022/12/29 10:17:43;;;;;;;8.93;3.08;;;15.60;1.00;;;;;;5095095;28;20037;-36
2022/12/29 10:20:28;;;;;;;11.90;3.35;;;15.70;1.00;;;;;;5095274;28;20388;-36
2022/12/29 10:23:03;;;;;;;6.45;2.42;;;15.60;1.00;;;;;;5094868;28;20434;-38
2022/12/29 10:25:36;;;;;;;8.50;3.08;;;15.60;1.00;;;;;;5094902;28;20040;-34
2022/12/29 10:28:13;;;;;;;6.68;2.97;;;15.70;1.00;;;;;;5094886;28;20123;-40
2022/12/29 10:30:40;;;;;;;13.35;2.78;;;15.60;1.00;;;;;;5094951;28;20044;-37
2022/12/29 10:33:14;;;;;;;12.18;3.28;;;15.60;1.00;;;;;;5094453;28;20055;-35
2022/12/29 10:35:43;;;;;;;11.68;2.63;;;15.60;1.00;;;;;;5094835;28;20050;-35
2022/12/29 10:38:20;;;;;;;9.35;3.13;;;15.60;1.00;;;;;;5076771;28;20055;-36
2022/12/29 10:40:54;;;;;;;11.18;2.63;;;15.60;1.00;;;;;;5094663;28;20051;-32
2022/12/29 10:43:36;;;;;;;8.13;2.40;;;15.60;1.00;;;;;;5094616;28;20040;-34
2022/12/29 10:46:09;;;;;;;12.02;2.08;;;15.60;1.00;;;;;;5094579;28;20415;-34
2022/12/29 10:48:36;;;;;;;;;;;15.60;1.00;;;;;;5076570;28;20048;-38
2022/12/29 10:51:07;;;;;;;8.48;1.88;;;15.60;1.00;;;;;;5094194;28;20376;-37
2022/12/29 10:53:51;;;;;;;9.32;2.22;;;15.60;1.00;;;;;;5075717;28;20050;-34
2022/12/29 10:56:20;;;;;;;11.02;2.53;;;15.60;1.00;;;;;;5094150;28;20097;-35
2022/12/29 10:58:49;;;;;;;9.68;2.00;;;15.60;1.00;;;;;;5094420;28;20548;-35
2022/12/29 11:01:17;;;;;;;10.23;2.03;;;15.60;1.00;;;;;;5094170;28;20040;-36
2022/12/29 11:04:03;;;;;;;8.57;2.53;;;15.60;1.00;;;;;;5094116;28;20380;-38
2022/12/29 11:06:30;;;;;;;5.50;3.03;;;15.60;1.00;;;;;;5094341;28;20074;-33
2022/12/29 11:09:02;;;;;;;10.38;1.73;;;15.70;1.00;;;;;;5094127;28;20484;-36
2022/12/29 11:11:36;;;;;;;7.25;1.92;;;15.70;1.00;;;;;;5094460;28;20044;-36
2022/12/29 11:14:17;;;;;;;7.85;1.92;;;15.70;1.00;;;;;;5093910;28;20040;-35
2022/12/29 11:16:55;;;;;;;6.30;2.33;;;15.70;1.00;;;;;;5094049;28;20093;-38
2022/12/29 11:19:25;;;;;;;8.55;1.92;;;15.70;1.00;;;;;;5094035;28;20040;-36
2022/12/29 11:21:53;;;;;;;8.98;2.33;;;15.70;1.00;;;;;;5075799;28;20431;-35
2022/12/29 11:24:28;;;;;;;9.73;2.40;;;15.70;1.00;;;;;;5075678;28;20509;-35
2022/12/29 11:27:22;;;;;;;5.13;1.65;;;15.70;1.00;;;;;;5093771;28;20135;-39
2022/12/29 11:29:51;;;;;;;8.52;1.63;;;15.70;1.00;;;;;;5093918;28;20051;-35
2022/12/29 11:32:20;;;;;;;10.70;2.13;;;15.70;1.00;;;;;;5093378;28;20032;-36
2022/12/29 11:34:54;;;;;;;5.78;1.95;;;15.70;1.00;;;;;;5076668;28;20447;-38
2022/12/29 11:37:29;;;;;;;6.80;2.08;;;15.70;1.00;;;;;;5093854;28;20048;-35
2022/12/29 11:40:05;;;;;;;7.13;2.05;;;15.70;1.00;;;;;;5093678;28;20050;-35
2022/12/29 11:42:41;;;;;;;7.07;1.92;;;15.70;1.00;;;;;;5075127;28;20406;-34
2022/12/29 11:45:20;;;;;;;8.02;2.60;;;15.70;1.00;;;;;;5093485;28;20075;-33
2022/12/29 11:47:50;;;;;;;3.80;1.25;;;15.70;1.00;;;;;;5093365;28;20036;-36
2022/12/29 11:50:21;;;;;;;5.75;1.42;;;15.70;1.00;;;;;;5093129;28;20044;-36
2022/12/29 11:52:50;;;;;;;8.18;2.40;;;15.70;1.00;;;;;;5074908;28;20540;-36
2022/12/29 11:55:24;;;;;;;7.75;1.65;;;15.70;1.00;;;;;;5074909;28;20044;-37
2022/12/29 11:58:01;;;;;;;6.15;2.00;;;15.70;1.00;;;;;;5093234;28;20399;-37
2022/12/29 12:00:40;;;;;;;8.90;2.05;;;15.70;1.00;;;;;;5093035;28;20063;-34
2022/12/29 12:03:24;;;;;;;6.78;1.45;;;15.70;1.00;;;;;;5092932;28;20040;-35
2022/12/29 12:06:04;;;;;;;5.90;1.17;;;15.70;1.00;;;;;;5092646;28;20079;-37
2022/12/29 12:08:55;;;;;;;7.25;1.73;;;15.70;1.00;;;;;;5093155;28;20047;-34
2022/12/29 12:11:33;;;;;;;8.32;2.05;;;15.70;1.00;;;;;;5092726;28;20044;-34
2022/12/29 12:14:06;;;;;;;8.45;1.85;;;15.70;1.00;;;;;;5057984;28;20046;-33
2022/12/29 12:16:59;;;;;;;7.07;2.25;;;15.70;1.00;;;;;;5092800;28;20048;-37
2022/12/29 12:19:43;;;;;;;7.65;1.70;;;15.70;1.00;;;;;;5092944;28;20127;-36
2022/12/29 12:22:28;;;;;;;8.57;1.52;;;15.70;1.00;;;;;;5092132;28;20036;-35
2022/12/29 12:25:20;;;;;;;9.70;2.50;;;15.70;1.00;;;;;;5092600;28;20145;-35
2022/12/29 12:27:57;;;;;;;5.72;1.60;;;15.70;1.00;;;;;;5092826;28;20051;-35
2022/12/29 12:30:26;;;;;;;5.80;1.67;;;15.70;1.00;;;;;;5092777;28;20078;-37
2022/12/29 12:33:05;;;;;;;5.00;1.75;;;15.70;1.00;;;;;;5092200;28;20062;-39
2022/12/29 12:35:44;;;;;;;7.68;1.98;;;15.70;1.00;;;;;;5092713;28;20406;-34
2022/12/29 12:38:14;;;;;;;5.10;1.85;;;15.70;1.00;;;;;;5092638;28;20047;-36
2022/12/29 12:40:52;;;;;;;6.65;2.03;;;15.70;1.00;;;;;;5092333;28;20063;-33
2022/12/29 12:43:31;;;;;;;5.47;1.50;;;15.70;1.00;;;;;;5092095;28;20109;-36
2022/12/29 12:46:15;;;;;;;4.05;1.08;;;15.70;1.00;;;;;;5092326;28;20090;-38
2022/12/29 12:49:23;;;;;;;6.47;2.03;;;15.70;1.00;;;;;;5092427;28;20044;-34
2022/12/29 12:52:14;;;;;;;7.03;1.70;;;15.70;1.00;;;;;;5073971;28;20044;-35
2022/12/29 12:54:56;;;;;;;5.88;1.95;;;15.70;1.00;;;;;;5092114;28;20032;-35
2022/12/29 12:57:50;;;;;;;8.48;2.22;;;15.70;1.00;;;;;;5092186;28;20063;-33
2022/12/29 13:00:18;;;;;;;7.20;2.10;;;15.70;1.00;;;;;;5092149;28;20074;-34
2022/12/29 13:03:00;;;;;;;6.07;1.50;;;15.70;1.00;;;;;;5091744;28;20055;-36
2022/12/29 13:05:49;;;;;;;4.07;1.23;;;15.70;1.00;;;;;;5073630;28;20495;-34
2022/12/29 13:08:48;;;;;;;5.00;1.83;;;15.70;1.00;;;;;;5092048;28;20126;-39
2022/12/29 13:11:34;;;;;;;7.10;1.38;;;15.70;1.00;;;;;;5092014;28;20071;-33
2022/12/29 13:14:15;;;;;;;7.75;1.25;;;15.70;1.00;;;;;;5091530;28;20511;-33
2022/12/29 13:17:23;;;;;;;7.50;1.67;;;15.70;1.00;;;;;;5091795;28;20044;-35
2022/12/29 13:20:01;;;;;;;6.47;1.85;;;15.70;1.00;;;;;;5073823;28;20044;-35
2022/12/29 13:22:53;;;;;;;6.50;1.00;;;15.70;1.00;;;;;;5091763;28;20434;-41
2022/12/29 13:25:33;;;;;;;3.90;1.10;;;15.70;1.00;;;;;;5091747;28;20460;-37
2022/12/29 13:28:06;;;;;;;7.57;1.50;;;15.70;1.00;;;;;;5091820;28;20075;-36
2022/12/29 13:30:49;;;;;;;5.43;1.20;;;15.70;1.00;;;;;;5091874;28;20040;-37
2022/12/29 13:33:28;;;;;;;7.88;1.60;;;15.70;1.00;;;;;;5093034;28;20201;-34
2022/12/29 13:36:03;;;;;;;7.68;1.80;;;15.70;1.00;;;;;;5096147;28;20456;-36
2022/12/29 13:38:30;;;;;;;7.18;1.67;;;15.70;1.00;;;;;;5096029;28;20040;-36
2022/12/29 13:41:05;;;;;;;2.63;0.93;;;15.70;1.00;;;;;;5095907;28;20586;-35
2022/12/29 13:43:35;;;;;;;5.97;1.40;;;15.70;1.00;;;;;;5095495;28;20067;-35
2022/12/29 13:46:13;;;;;;;9.73;2.55;;;15.70;1.00;;;;;;5077599;28;20079;-36
2022/12/29 13:49:11;;;;;;;5.38;1.30;;;15.70;1.00;;;;;;5077925;28;20096;-35
2022/12/29 13:51:49;;;;;;;6.18;1.50;;;15.70;1.00;;;;;;5077554;28;20146;-35
2022/12/29 13:54:30;;;;;;;9.25;1.77;;;15.70;1.00;;;;;;5077257;28;20044;-35
2022/12/29 13:57:23;;;;;;;6.07;1.42;;;15.70;1.00;;;;;;5095845;28;20471;-35
2022/12/29 14:00:01;;;;;;;5.22;1.10;;;15.60;1.00;;;;;;5095701;28;20040;-34
2022/12/29 14:02:37;;;;;;;11.10;1.67;;;15.70;1.00;;;;;;5094855;28;20044;-37